sensor_id;sensor_type;location;lat;lon;timestamp;temperature;humidity
19610;DHT22;9952;47.122;-1.638;2024-02-14T00:03:01;12.80;99.90
19610;DHT22;9952;47.122;-1.638;2024-02-14T00:07:42;12.80;99.90
19610;DHT22;9952;47.122;-1.638;2024-02-14T00:12:22;12.80;99.90
19610;DHT22;9952;47.122;-1.638;2024-02-14T00:17:04;12.80;99.90
19610;DHT22;9952;47.122;-1.638;2024-02-14T00:21:46;12.80;99.90
19610;DHT22;9952;47.122;-1.638;2024-02-14T00:26:26;12.80;99.90
19610;DHT22;9952;47.122;-1.638;2024-02-14T00:31:07;12.80;99.90
19610;DHT22;9952;47.122;-1.638;2024-02-14T00:35:48;12.80;99.90
19610;DHT22;9952;47.122;-1.638;2024-02-14T00:40:28;12.70;99.90
19610;DHT22;9952;47.122;-1.638;2024-02-14T00:45:09;12.70;99.90
19610;DHT22;9952;47.122;-1.638;2024-02-14T00:49:50;12.80;99.90
19610;DHT22;9952;47.122;-1.638;2024-02-14T00:54:30;12.80;99.90
19610;DHT22;9952;47.122;-1.638;2024-02-14T00:59:11;12.80;99.90
19610;DHT22;9952;47.122;-1.638;2024-02-14T01:03:52;12.80;99.90
19610;DHT22;9952;47.122;-1.638;2024-02-14T01:08:32;12.80;99.90
19610;DHT22;9952;47.122;-1.638;2024-02-14T01:13:14;12.80;99.90
19610;DHT22;9952;47.122;-1.638;2024-02-14T01:17:55;12.90;99.90
19610;DHT22;9952;47.122;-1.638;2024-02-14T01:22:36;12.90;99.90
19610;DHT22;9952;47.122;-1.638;2024-02-14T01:27:17;12.90;99.90
19610;DHT22;9952;47.122;-1.638;2024-02-14T01:31:57;12.90;99.90
19610;DHT22;9952;47.122;-1.638;2024-02-14T01:36:38;12.90;99.90
19610;DHT22;9952;47.122;-1.638;2024-02-14T01:41:19;12.90;99.90
19610;DHT22;9952;47.122;-1.638;2024-02-14T01:46:06;12.90;99.90
19610;DHT22;9952;47.122;-1.638;2024-02-14T01:50:46;12.90;99.90
19610;DHT22;9952;47.122;-1.638;2024-02-14T01:55:28;12.90;99.90
19610;DHT22;9952;47.122;-1.638;2024-02-14T02:00:09;12.90;99.90
19610;DHT22;9952;47.122;-1.638;2024-02-14T02:04:49;12.90;99.90
19610;DHT22;9952;47.122;-1.638;2024-02-14T02:09:31;12.90;99.90
19610;DHT22;9952;47.122;-1.638;2024-02-14T02:14:13;12.90;99.90
19610;DHT22;9952;47.122;-1.638;2024-02-14T02:18:53;12.90;99.90
19610;DHT22;9952;47.122;-1.638;2024-02-14T02:23:35;12.90;99.90
19610;DHT22;9952;47.122;-1.638;2024-02-14T02:28:16;12.80;99.90
19610;DHT22;9952;47.122;-1.638;2024-02-14T02:32:56;12.80;99.90
19610;DHT22;9952;47.122;-1.638;2024-02-14T02:37:38;12.80;99.90
19610;DHT22;9952;47.122;-1.638;2024-02-14T02:42:19;12.80;99.90
19610;DHT22;9952;47.122;-1.638;2024-02-14T02:47:00;12.80;99.90
19610;DHT22;9952;47.122;-1.638;2024-02-14T02:51:41;12.80;99.90
19610;DHT22;9952;47.122;-1.638;2024-02-14T02:56:21;12.80;99.90
19610;DHT22;9952;47.122;-1.638;2024-02-14T03:01:02;12.80;99.90
19610;DHT22;9952;47.122;-1.638;2024-02-14T03:05:45;12.80;99.90
19610;DHT22;9952;47.122;-1.638;2024-02-14T03:10:26;12.80;99.90
19610;DHT22;9952;47.122;-1.638;2024-02-14T03:15:09;12.80;99.90
19610;DHT22;9952;47.122;-1.638;2024-02-14T03:19:50;12.80;99.90
19610;DHT22;9952;47.122;-1.638;2024-02-14T03:24:32;12.80;99.90
19610;DHT22;9952;47.122;-1.638;2024-02-14T03:29:15;12.80;99.90
19610;DHT22;9952;47.122;-1.638;2024-02-14T03:33:57;12.80;99.90
19610;DHT22;9952;47.122;-1.638;2024-02-14T03:38:37;12.80;99.90
19610;DHT22;9952;47.122;-1.638;2024-02-14T03:43:20;12.80;99.90
19610;DHT22;9952;47.122;-1.638;2024-02-14T03:48:02;12.80;99.90
19610;DHT22;9952;47.122;-1.638;2024-02-14T03:52:43;12.80;99.90
19610;DHT22;9952;47.122;-1.638;2024-02-14T03:57:23;12.80;99.90
19610;DHT22;9952;47.122;-1.638;2024-02-14T04:02:06;12.80;99.90
19610;DHT22;9952;47.122;-1.638;2024-02-14T04:06:50;12.80;99.90
19610;DHT22;9952;47.122;-1.638;2024-02-14T04:11:31;12.80;99.90
19610;DHT22;9952;47.122;-1.638;2024-02-14T04:16:11;12.80;99.90
19610;DHT22;9952;47.122;-1.638;2024-02-14T04:20:52;12.80;99.90
19610;DHT22;9952;47.122;-1.638;2024-02-14T04:25:33;12.80;99.90
19610;DHT22;9952;47.122;-1.638;2024-02-14T04:30:14;12.90;99.90
19610;DHT22;9952;47.122;-1.638;2024-02-14T04:34:55;12.90;99.90
19610;DHT22;9952;47.122;-1.638;2024-02-14T04:39:38;12.90;99.90
19610;DHT22;9952;47.122;-1.638;2024-02-14T04:44:19;12.90;99.90
19610;DHT22;9952;47.122;-1.638;2024-02-14T04:49:00;12.90;99.90
19610;DHT22;9952;47.122;-1.638;2024-02-14T04:53:43;13.00;99.90
19610;DHT22;9952;47.122;-1.638;2024-02-14T04:58:24;13.00;99.90
19610;DHT22;9952;47.122;-1.638;2024-02-14T05:03:05;13.10;99.90
19610;DHT22;9952;47.122;-1.638;2024-02-14T05:07:47;13.10;99.90
19610;DHT22;9952;47.122;-1.638;2024-02-14T05:12:27;13.00;99.90
19610;DHT22;9952;47.122;-1.638;2024-02-14T05:17:08;13.00;99.90
19610;DHT22;9952;47.122;-1.638;2024-02-14T05:21:49;13.00;99.90
19610;DHT22;9952;47.122;-1.638;2024-02-14T05:26:30;13.10;99.90
19610;DHT22;9952;47.122;-1.638;2024-02-14T05:31:10;13.00;99.90
19610;DHT22;9952;47.122;-1.638;2024-02-14T05:35:51;13.00;99.90
19610;DHT22;9952;47.122;-1.638;2024-02-14T05:40:33;13.00;99.90
19610;DHT22;9952;47.122;-1.638;2024-02-14T05:45:13;13.00;99.90
19610;DHT22;9952;47.122;-1.638;2024-02-14T05:49:54;12.90;99.90
19610;DHT22;9952;47.122;-1.638;2024-02-14T05:54:35;12.90;99.90
19610;DHT22;9952;47.122;-1.638;2024-02-14T05:59:15;12.90;99.90
19610;DHT22;9952;47.122;-1.638;2024-02-14T06:03:56;12.80;99.90
19610;DHT22;9952;47.122;-1.638;2024-02-14T06:08:37;12.80;99.90
19610;DHT22;9952;47.122;-1.638;2024-02-14T06:13:17;12.80;99.90
19610;DHT22;9952;47.122;-1.638;2024-02-14T06:17:58;12.80;99.90
19610;DHT22;9952;47.122;-1.638;2024-02-14T06:22:39;12.80;99.90
19610;DHT22;9952;47.122;-1.638;2024-02-14T06:27:19;12.80;99.90
19610;DHT22;9952;47.122;-1.638;2024-02-14T06:32:00;12.80;99.90
19610;DHT22;9952;47.122;-1.638;2024-02-14T06:36:41;12.80;99.90
19610;DHT22;9952;47.122;-1.638;2024-02-14T06:41:21;12.80;99.90
19610;DHT22;9952;47.122;-1.638;2024-02-14T06:46:02;12.70;99.90
19610;DHT22;9952;47.122;-1.638;2024-02-14T06:50:43;12.70;99.90
19610;DHT22;9952;47.122;-1.638;2024-02-14T06:55:23;12.80;99.90
19610;DHT22;9952;47.122;-1.638;2024-02-14T07:00:04;12.80;99.90
19610;DHT22;9952;47.122;-1.638;2024-02-14T07:04:47;12.80;99.90
19610;DHT22;9952;47.122;-1.638;2024-02-14T07:09:29;12.70;99.90
19610;DHT22;9952;47.122;-1.638;2024-02-14T07:14:09;12.70;99.90
19610;DHT22;9952;47.122;-1.638;2024-02-14T07:18:50;12.60;99.90
19610;DHT22;9952;47.122;-1.638;2024-02-14T07:23:32;12.60;99.90
19610;DHT22;9952;47.122;-1.638;2024-02-14T07:28:13;12.50;99.90
19610;DHT22;9952;47.122;-1.638;2024-02-14T07:32:54;12.50;99.90
19610;DHT22;9952;47.122;-1.638;2024-02-14T07:37:34;12.50;99.90
19610;DHT22;9952;47.122;-1.638;2024-02-14T07:42:15;12.50;99.90
19610;DHT22;9952;47.122;-1.638;2024-02-14T07:46:56;12.60;99.90
19610;DHT22;9952;47.122;-1.638;2024-02-14T07:51:36;12.60;99.90
19610;DHT22;9952;47.122;-1.638;2024-02-14T07:56:18;12.70;99.90
19610;DHT22;9952;47.122;-1.638;2024-02-14T08:00:58;12.80;99.90
19610;DHT22;9952;47.122;-1.638;2024-02-14T08:05:39;12.80;99.90
19610;DHT22;9952;47.122;-1.638;2024-02-14T08:10:21;12.90;99.90
19610;DHT22;9952;47.122;-1.638;2024-02-14T08:15:02;12.90;99.90
19610;DHT22;9952;47.122;-1.638;2024-02-14T08:19:46;12.90;99.90
19610;DHT22;9952;47.122;-1.638;2024-02-14T08:24:27;13.00;99.90
19610;DHT22;9952;47.122;-1.638;2024-02-14T08:29:08;13.10;99.90
19610;DHT22;9952;47.122;-1.638;2024-02-14T08:33:50;13.10;99.90
19610;DHT22;9952;47.122;-1.638;2024-02-14T08:38:31;13.20;99.90
19610;DHT22;9952;47.122;-1.638;2024-02-14T08:43:12;13.20;99.90
19610;DHT22;9952;47.122;-1.638;2024-02-14T08:47:53;13.20;99.90
19610;DHT22;9952;47.122;-1.638;2024-02-14T08:52:34;13.20;99.90
19610;DHT22;9952;47.122;-1.638;2024-02-14T08:57:14;13.20;99.90
19610;DHT22;9952;47.122;-1.638;2024-02-14T09:01:55;13.30;99.90
19610;DHT22;9952;47.122;-1.638;2024-02-14T09:06:36;13.30;99.90
19610;DHT22;9952;47.122;-1.638;2024-02-14T09:11:19;13.40;99.90
19610;DHT22;9952;47.122;-1.638;2024-02-14T09:16:01;13.50;99.90
19610;DHT22;9952;47.122;-1.638;2024-02-14T09:20:41;13.70;99.90
19610;DHT22;9952;47.122;-1.638;2024-02-14T09:25:26;13.80;99.90
19610;DHT22;9952;47.122;-1.638;2024-02-14T09:30:07;13.80;99.90
19610;DHT22;9952;47.122;-1.638;2024-02-14T09:34:48;13.90;99.90
19610;DHT22;9952;47.122;-1.638;2024-02-14T09:39:28;14.00;99.90
19610;DHT22;9952;47.122;-1.638;2024-02-14T09:44:09;14.10;99.90
19610;DHT22;9952;47.122;-1.638;2024-02-14T09:48:50;14.10;99.90
19610;DHT22;9952;47.122;-1.638;2024-02-14T09:53:32;14.20;99.90
19610;DHT22;9952;47.122;-1.638;2024-02-14T09:58:14;14.20;99.90
19610;DHT22;9952;47.122;-1.638;2024-02-14T10:02:55;14.30;99.90
19610;DHT22;9952;47.122;-1.638;2024-02-14T10:07:43;14.40;99.90
19610;DHT22;9952;47.122;-1.638;2024-02-14T10:12:24;14.70;99.90
19610;DHT22;9952;47.122;-1.638;2024-02-14T10:17:04;14.90;99.90
19610;DHT22;9952;47.122;-1.638;2024-02-14T10:21:59;15.10;99.90
19610;DHT22;9952;47.122;-1.638;2024-02-14T10:26:40;15.30;99.90
19610;DHT22;9952;47.122;-1.638;2024-02-14T10:31:26;15.40;99.90
19610;DHT22;9952;47.122;-1.638;2024-02-14T10:36:08;15.60;99.90
19610;DHT22;9952;47.122;-1.638;2024-02-14T10:40:49;15.80;99.90
19610;DHT22;9952;47.122;-1.638;2024-02-14T10:45:31;15.90;99.90
19610;DHT22;9952;47.122;-1.638;2024-02-14T10:50:13;16.00;99.90
19610;DHT22;9952;47.122;-1.638;2024-02-14T10:54:56;16.20;99.90
19610;DHT22;9952;47.122;-1.638;2024-02-14T10:59:43;16.40;99.90
19610;DHT22;9952;47.122;-1.638;2024-02-14T11:04:25;16.70;99.90
19610;DHT22;9952;47.122;-1.638;2024-02-14T11:09:05;16.80;99.90
19610;DHT22;9952;47.122;-1.638;2024-02-14T11:13:54;16.90;99.90
19610;DHT22;9952;47.122;-1.638;2024-02-14T11:18:35;17.00;99.90
19610;DHT22;9952;47.122;-1.638;2024-02-14T11:23:21;17.20;99.90
19610;DHT22;9952;47.122;-1.638;2024-02-14T11:28:19;17.30;99.90
19610;DHT22;9952;47.122;-1.638;2024-02-14T11:33:26;17.50;99.90
19610;DHT22;9952;47.122;-1.638;2024-02-14T11:38:09;17.90;99.90
19610;DHT22;9952;47.122;-1.638;2024-02-14T11:42:50;18.30;99.90
19610;DHT22;9952;47.122;-1.638;2024-02-14T11:47:30;18.70;99.90
19610;DHT22;9952;47.122;-1.638;2024-02-14T11:52:11;18.90;99.90
19610;DHT22;9952;47.122;-1.638;2024-02-14T11:56:54;19.20;99.90
19610;DHT22;9952;47.122;-1.638;2024-02-14T12:01:35;19.40;99.90
19610;DHT22;9952;47.122;-1.638;2024-02-14T12:06:16;19.40;99.90
19610;DHT22;9952;47.122;-1.638;2024-02-14T12:10:57;19.40;99.90
19610;DHT22;9952;47.122;-1.638;2024-02-14T12:15:39;19.60;99.90
19610;DHT22;9952;47.122;-1.638;2024-02-14T12:20:22;19.80;99.90
19610;DHT22;9952;47.122;-1.638;2024-02-14T12:25:05;19.50;99.90
19610;DHT22;9952;47.122;-1.638;2024-02-14T12:29:46;19.50;99.90
19610;DHT22;9952;47.122;-1.638;2024-02-14T12:34:27;19.60;99.90
19610;DHT22;9952;47.122;-1.638;2024-02-14T12:39:08;19.30;99.90
19610;DHT22;9952;47.122;-1.638;2024-02-14T12:43:52;19.20;99.90
19610;DHT22;9952;47.122;-1.638;2024-02-14T12:48:34;19.20;99.90
19610;DHT22;9952;47.122;-1.638;2024-02-14T12:53:14;19.20;99.90
19610;DHT22;9952;47.122;-1.638;2024-02-14T12:57:56;19.50;99.90
19610;DHT22;9952;47.122;-1.638;2024-02-14T13:02:37;19.70;99.90
19610;DHT22;9952;47.122;-1.638;2024-02-14T13:07:21;19.70;99.90
19610;DHT22;9952;47.122;-1.638;2024-02-14T13:12:02;19.90;99.90
19610;DHT22;9952;47.122;-1.638;2024-02-14T13:16:43;20.10;99.90
19610;DHT22;9952;47.122;-1.638;2024-02-14T13:21:24;19.90;99.90
19610;DHT22;9952;47.122;-1.638;2024-02-14T13:26:04;19.90;99.90
19610;DHT22;9952;47.122;-1.638;2024-02-14T13:30:45;19.80;99.90
19610;DHT22;9952;47.122;-1.638;2024-02-14T13:35:27;19.40;99.90
19610;DHT22;9952;47.122;-1.638;2024-02-14T13:40:08;19.20;99.90
19610;DHT22;9952;47.122;-1.638;2024-02-14T13:44:52;19.10;99.90
19610;DHT22;9952;47.122;-1.638;2024-02-14T13:49:34;18.90;99.90
19610;DHT22;9952;47.122;-1.638;2024-02-14T13:54:15;19.00;99.90
19610;DHT22;9952;47.122;-1.638;2024-02-14T13:58:55;19.00;99.90
19610;DHT22;9952;47.122;-1.638;2024-02-14T14:03:36;18.90;99.90
19610;DHT22;9952;47.122;-1.638;2024-02-14T14:08:17;19.00;99.90
19610;DHT22;9952;47.122;-1.638;2024-02-14T14:12:58;19.10;99.90
19610;DHT22;9952;47.122;-1.638;2024-02-14T14:17:39;19.30;99.90
19610;DHT22;9952;47.122;-1.638;2024-02-14T14:22:19;19.30;99.90
19610;DHT22;9952;47.122;-1.638;2024-02-14T14:27:00;19.30;99.90
19610;DHT22;9952;47.122;-1.638;2024-02-14T14:31:40;19.20;99.90
19610;DHT22;9952;47.122;-1.638;2024-02-14T14:36:21;19.30;99.90
19610;DHT22;9952;47.122;-1.638;2024-02-14T14:41:02;19.30;99.90
19610;DHT22;9952;47.122;-1.638;2024-02-14T14:45:43;19.30;99.90
19610;DHT22;9952;47.122;-1.638;2024-02-14T14:50:23;19.30;99.90
19610;DHT22;9952;47.122;-1.638;2024-02-14T14:55:05;19.30;99.90
19610;DHT22;9952;47.122;-1.638;2024-02-14T14:59:46;19.10;99.90
19610;DHT22;9952;47.122;-1.638;2024-02-14T15:04:27;19.00;99.90
19610;DHT22;9952;47.122;-1.638;2024-02-14T15:09:07;18.90;99.90
19610;DHT22;9952;47.122;-1.638;2024-02-14T15:13:49;18.80;99.90
19610;DHT22;9952;47.122;-1.638;2024-02-14T15:18:29;18.60;99.90
19610;DHT22;9952;47.122;-1.638;2024-02-14T15:23:10;18.40;99.90
19610;DHT22;9952;47.122;-1.638;2024-02-14T15:27:52;18.30;99.90
19610;DHT22;9952;47.122;-1.638;2024-02-14T15:32:35;18.20;99.90
19610;DHT22;9952;47.122;-1.638;2024-02-14T15:37:35;18.20;99.90
19610;DHT22;9952;47.122;-1.638;2024-02-14T15:42:15;18.00;99.90
19610;DHT22;9952;47.122;-1.638;2024-02-14T15:46:57;17.90;99.90
19610;DHT22;9952;47.122;-1.638;2024-02-14T15:51:40;17.80;99.90
19610;DHT22;9952;47.122;-1.638;2024-02-14T15:56:21;17.70;99.90
19610;DHT22;9952;47.122;-1.638;2024-02-14T16:01:01;17.80;99.90
19610;DHT22;9952;47.122;-1.638;2024-02-14T16:05:42;17.70;99.90
19610;DHT22;9952;47.122;-1.638;2024-02-14T16:10:23;17.70;99.90
19610;DHT22;9952;47.122;-1.638;2024-02-14T16:15:05;17.60;99.90
19610;DHT22;9952;47.122;-1.638;2024-02-14T16:19:46;17.50;99.90
19610;DHT22;9952;47.122;-1.638;2024-02-14T16:24:26;17.50;99.90
19610;DHT22;9952;47.122;-1.638;2024-02-14T16:29:07;17.40;99.90
19610;DHT22;9952;47.122;-1.638;2024-02-14T16:33:48;17.40;99.90
19610;DHT22;9952;47.122;-1.638;2024-02-14T16:38:29;17.30;99.90
19610;DHT22;9952;47.122;-1.638;2024-02-14T16:43:10;17.10;99.90
19610;DHT22;9952;47.122;-1.638;2024-02-14T16:47:51;17.10;99.90
19610;DHT22;9952;47.122;-1.638;2024-02-14T16:52:32;17.00;99.90
19610;DHT22;9952;47.122;-1.638;2024-02-14T16:57:13;17.00;99.90
19610;DHT22;9952;47.122;-1.638;2024-02-14T17:01:53;16.90;99.90
19610;DHT22;9952;47.122;-1.638;2024-02-14T17:06:34;16.80;99.90
19610;DHT22;9952;47.122;-1.638;2024-02-14T17:11:15;16.70;99.90
19610;DHT22;9952;47.122;-1.638;2024-02-14T17:15:56;16.60;99.90
19610;DHT22;9952;47.122;-1.638;2024-02-14T17:20:38;16.50;99.90
19610;DHT22;9952;47.122;-1.638;2024-02-14T17:25:18;16.50;99.90
19610;DHT22;9952;47.122;-1.638;2024-02-14T17:29:59;16.30;99.90
19610;DHT22;9952;47.122;-1.638;2024-02-14T17:34:39;16.20;99.90
19610;DHT22;9952;47.122;-1.638;2024-02-14T17:39:21;16.20;99.90
19610;DHT22;9952;47.122;-1.638;2024-02-14T17:44:02;16.00;99.90
19610;DHT22;9952;47.122;-1.638;2024-02-14T17:48:43;15.90;99.90
19610;DHT22;9952;47.122;-1.638;2024-02-14T17:53:24;15.80;99.90
19610;DHT22;9952;47.122;-1.638;2024-02-14T17:58:07;15.80;99.90
19610;DHT22;9952;47.122;-1.638;2024-02-14T18:02:49;15.70;99.90
19610;DHT22;9952;47.122;-1.638;2024-02-14T18:07:30;15.60;99.90
19610;DHT22;9952;47.122;-1.638;2024-02-14T18:12:10;15.60;99.90
19610;DHT22;9952;47.122;-1.638;2024-02-14T18:16:51;15.50;99.90
19610;DHT22;9952;47.122;-1.638;2024-02-14T18:21:32;15.50;99.90
19610;DHT22;9952;47.122;-1.638;2024-02-14T18:26:13;15.50;99.90
19610;DHT22;9952;47.122;-1.638;2024-02-14T18:30:54;15.40;99.90
19610;DHT22;9952;47.122;-1.638;2024-02-14T18:35:36;15.40;99.90
19610;DHT22;9952;47.122;-1.638;2024-02-14T18:40:16;15.30;99.90
19610;DHT22;9952;47.122;-1.638;2024-02-14T18:44:57;15.30;99.90
19610;DHT22;9952;47.122;-1.638;2024-02-14T18:49:38;15.30;99.90
19610;DHT22;9952;47.122;-1.638;2024-02-14T18:54:24;15.30;99.90
19610;DHT22;9952;47.122;-1.638;2024-02-14T18:59:05;15.30;99.90
19610;DHT22;9952;47.122;-1.638;2024-02-14T19:03:46;15.30;99.90
19610;DHT22;9952;47.122;-1.638;2024-02-14T19:08:27;15.20;99.90
19610;DHT22;9952;47.122;-1.638;2024-02-14T19:13:09;15.20;99.90
19610;DHT22;9952;47.122;-1.638;2024-02-14T19:17:51;15.10;99.90
19610;DHT22;9952;47.122;-1.638;2024-02-14T19:22:32;15.10;99.90
19610;DHT22;9952;47.122;-1.638;2024-02-14T19:27:13;15.00;99.90
19610;DHT22;9952;47.122;-1.638;2024-02-14T19:31:53;15.00;99.90
19610;DHT22;9952;47.122;-1.638;2024-02-14T19:36:34;15.00;99.90
19610;DHT22;9952;47.122;-1.638;2024-02-14T19:41:16;15.10;99.90
19610;DHT22;9952;47.122;-1.638;2024-02-14T19:45:56;15.00;99.90
19610;DHT22;9952;47.122;-1.638;2024-02-14T19:50:38;14.90;99.90
19610;DHT22;9952;47.122;-1.638;2024-02-14T19:55:18;14.90;99.90
19610;DHT22;9952;47.122;-1.638;2024-02-14T19:59:59;14.80;99.90
19610;DHT22;9952;47.122;-1.638;2024-02-14T20:04:40;14.80;99.90
19610;DHT22;9952;47.122;-1.638;2024-02-14T20:09:21;14.70;99.90
19610;DHT22;9952;47.122;-1.638;2024-02-14T20:14:02;14.70;99.90
19610;DHT22;9952;47.122;-1.638;2024-02-14T20:18:43;14.60;99.90
19610;DHT22;9952;47.122;-1.638;2024-02-14T20:23:23;14.40;99.90
19610;DHT22;9952;47.122;-1.638;2024-02-14T20:28:04;14.40;99.90
19610;DHT22;9952;47.122;-1.638;2024-02-14T20:32:45;14.40;99.90
19610;DHT22;9952;47.122;-1.638;2024-02-14T20:37:27;14.40;99.90
19610;DHT22;9952;47.122;-1.638;2024-02-14T20:42:07;14.40;99.90
19610;DHT22;9952;47.122;-1.638;2024-02-14T20:46:48;14.30;99.90
19610;DHT22;9952;47.122;-1.638;2024-02-14T20:51:35;14.40;99.90
19610;DHT22;9952;47.122;-1.638;2024-02-14T20:56:15;14.40;99.90
19610;DHT22;9952;47.122;-1.638;2024-02-14T21:00:56;14.40;99.90
19610;DHT22;9952;47.122;-1.638;2024-02-14T21:05:37;14.50;99.90
19610;DHT22;9952;47.122;-1.638;2024-02-14T21:10:17;14.40;99.90
19610;DHT22;9952;47.122;-1.638;2024-02-14T21:14:59;14.40;99.90
19610;DHT22;9952;47.122;-1.638;2024-02-14T21:19:39;14.40;99.90
19610;DHT22;9952;47.122;-1.638;2024-02-14T21:24:20;14.30;99.90
19610;DHT22;9952;47.122;-1.638;2024-02-14T21:29:01;14.30;99.90
19610;DHT22;9952;47.122;-1.638;2024-02-14T21:33:41;14.30;99.90
19610;DHT22;9952;47.122;-1.638;2024-02-14T21:38:23;14.20;99.90
19610;DHT22;9952;47.122;-1.638;2024-02-14T21:43:03;14.20;99.90
19610;DHT22;9952;47.122;-1.638;2024-02-14T21:47:44;14.20;99.90
19610;DHT22;9952;47.122;-1.638;2024-02-14T21:52:26;14.10;99.90
19610;DHT22;9952;47.122;-1.638;2024-02-14T21:57:09;14.10;99.90
19610;DHT22;9952;47.122;-1.638;2024-02-14T22:01:51;14.10;99.90
19610;DHT22;9952;47.122;-1.638;2024-02-14T22:06:32;14.10;99.90
19610;DHT22;9952;47.122;-1.638;2024-02-14T22:11:13;14.10;99.90
19610;DHT22;9952;47.122;-1.638;2024-02-14T22:15:54;14.00;99.90
19610;DHT22;9952;47.122;-1.638;2024-02-14T22:20:35;14.00;99.90
19610;DHT22;9952;47.122;-1.638;2024-02-14T22:25:15;14.00;99.90
19610;DHT22;9952;47.122;-1.638;2024-02-14T22:29:56;14.00;99.90
19610;DHT22;9952;47.122;-1.638;2024-02-14T22:34:37;14.10;99.90
19610;DHT22;9952;47.122;-1.638;2024-02-14T22:39:20;14.20;99.90
19610;DHT22;9952;47.122;-1.638;2024-02-14T22:44:01;14.20;99.90
19610;DHT22;9952;47.122;-1.638;2024-02-14T22:48:42;14.10;99.90
19610;DHT22;9952;47.122;-1.638;2024-02-14T22:53:22;14.10;99.90
19610;DHT22;9952;47.122;-1.638;2024-02-14T22:58:03;14.10;99.90
19610;DHT22;9952;47.122;-1.638;2024-02-14T23:02:44;14.00;99.90
19610;DHT22;9952;47.122;-1.638;2024-02-14T23:07:25;14.00;99.90
19610;DHT22;9952;47.122;-1.638;2024-02-14T23:12:05;14.00;99.90
19610;DHT22;9952;47.122;-1.638;2024-02-14T23:16:46;14.00;99.90
19610;DHT22;9952;47.122;-1.638;2024-02-14T23:21:27;14.00;99.90
19610;DHT22;9952;47.122;-1.638;2024-02-14T23:26:08;13.90;99.90
19610;DHT22;9952;47.122;-1.638;2024-02-14T23:30:49;13.90;99.90
19610;DHT22;9952;47.122;-1.638;2024-02-14T23:35:30;13.90;99.90
19610;DHT22;9952;47.122;-1.638;2024-02-14T23:40:11;13.90;99.90
19610;DHT22;9952;47.122;-1.638;2024-02-14T23:44:52;13.90;99.90
19610;DHT22;9952;47.122;-1.638;2024-02-14T23:49:32;14.00;99.90
19610;DHT22;9952;47.122;-1.638;2024-02-14T23:54:15;14.00;99.90
19610;DHT22;9952;47.122;-1.638;2024-02-14T23:58:56;13.90;99.90
